Time;durP1;ratioP1;P1;durP2;ratioP2;P2;SDS_P1;SDS_P2;PMS_P1;PMS_P2;Temp;Humidity;BMP_temperature;BMP_pressure;BME280_temperature;BME280_humidity;BME280_pressure;Samples;Min_cycle;Max_cycle;Signal;HPM_P1;HPM_P2
2022/02/24 00:00:09;;;;;;;35.95;11.88;;;;;;;3.21;72.79;101412.48;1658522;85;26726;-79
2022/02/24 00:02:45;;;;;;;33.42;11.80;;;;;;;3.21;72.92;101411.16;1656284;85;25942;-78
2022/02/24 00:05:12;;;;;;;46.50;14.53;;;;;;;3.18;73.02;101405.61;1649224;86;25835;-79
2022/02/24 00:07:38;;;;;;;37.48;11.60;;;;;;;3.16;73.00;101402.72;1656469;85;25892;-80
2022/02/24 00:10:08;;;;;;;30.88;11.50;;;;;;;3.17;73.04;101404.39;1648538;86;28387;-79
2022/02/24 00:12:37;;;;;;;42.43;13.83;;;;;;;3.16;72.95;101400.07;1648910;86;25819;-80
2022/02/24 00:15:07;;;;;;;31.77;12.75;;;;;;;3.11;72.73;101400.42;1648797;86;25797;-80
2022/02/24 00:17:34;;;;;;;33.13;12.88;;;;;;;3.08;72.54;101396.68;1649266;86;25795;-80
2022/02/24 00:20:01;;;;;;;38.50;14.25;;;;;;;3.08;72.46;101400.65;1652465;85;26634;-81
2022/02/24 00:22:28;;;;;;;40.95;14.68;;;;;;;3.05;72.39;101401.76;1652399;85;28310;-80
2022/02/24 00:24:54;;;;;;;36.53;14.90;;;;;;;3.04;72.50;101411.97;1635669;86;26081;-79
2022/02/24 00:27:21;;;;;;;41.68;14.43;;;;;;;3.01;72.66;101413.55;1667712;85;25858;-79
2022/02/24 00:29:47;;;;;;;54.73;18.25;;;;;;;2.96;72.84;101420.98;1654324;85;25941;-79
2022/02/24 00:32:13;;;;;;;52.53;17.35;;;;;;;2.92;72.87;101417.37;1654161;85;25827;-81
2022/02/24 00:34:39;;;;;;;48.52;17.00;;;;;;;2.91;73.04;101405.94;1649101;86;28293;-79
2022/02/24 00:37:05;;;;;;;48.00;18.05;;;;;;;2.86;73.10;101405.94;1648597;86;26579;-81
2022/02/24 00:39:32;;;;;;;32.78;13.58;;;;;;;2.85;73.23;101409.53;1648675;86;26768;-79
2022/02/24 00:41:58;;;;;;;37.17;12.93;;;;;;;2.83;73.26;101408.33;1637985;86;26312;-79
2022/02/24 00:44:25;;;;;;;35.83;12.33;;;;;;;2.80;73.44;101402.45;1633513;86;25866;-81
2022/02/24 00:46:51;;;;;;;37.08;16.23;;;;;;;2.78;73.43;101397.75;1620394;87;27479;-79
2022/02/24 00:49:18;;;;;;;36.70;13.78;;;;;;;2.74;73.63;101398.45;1620634;88;25854;-80
2022/02/24 00:51:44;;;;;;;40.08;16.35;;;;;;;2.70;73.63;101402.77;1609523;88;25945;-81
2022/02/24 00:54:12;;;;;;;39.05;14.33;;;;;;;2.68;73.86;101405.53;1635979;87;25895;-79
2022/02/24 00:56:39;;;;;;;39.27;16.10;;;;;;;2.60;73.90;101405.75;1632791;87;26118;-79
2022/02/24 00:59:05;;;;;;;41.63;14.68;;;;;;;2.56;74.15;101402.51;1633116;87;27489;-79
2022/02/24 01:01:31;;;;;;;43.58;15.65;;;;;;;2.56;74.32;101406.95;1590963;88;25872;-81
2022/02/24 01:03:58;;;;;;;42.17;15.40;;;;;;;2.54;74.44;101406.22;1619692;88;25878;-79
2022/02/24 01:06:24;;;;;;;45.28;17.35;;;;;;;2.51;74.51;101406.44;1619943;88;25942;-80
2022/02/24 01:08:50;;;;;;;46.15;17.92;;;;;;;2.52;74.68;101408.14;1619510;87;25901;-80
2022/02/24 01:11:16;;;;;;;50.50;17.87;;;;;;;2.51;74.69;101411.73;1619489;88;27689;-81
2022/02/24 01:13:42;;;;;;;45.85;18.57;;;;;;;2.50;74.75;101403.45;1631947;87;26642;-80
2022/02/24 01:16:09;;;;;;;49.20;17.00;;;;;;;2.50;74.72;101407.41;1630562;87;25510;-80
2022/02/24 01:18:36;;;;;;;48.45;17.67;;;;;;;2.50;74.81;101406.94;1630376;87;25839;-79
2022/02/24 01:21:02;;;;;;;45.48;16.95;;;;;;;2.49;74.87;101405.72;1630473;87;25890;-80
2022/02/24 01:23:28;;;;;;;43.48;17.25;;;;;;;2.47;74.88;101407.16;1616380;87;27645;-80
2022/02/24 01:25:54;;;;;;;47.62;17.48;;;;;;;2.45;74.74;101402.47;1619954;87;25781;-80
2022/02/24 01:28:21;;;;;;;42.45;16.32;;;;;;;2.44;74.79;101402.09;1629405;87;25914;-80
2022/02/24 01:30:47;;;;;;;43.35;17.57;;;;;;;2.42;74.64;101404.52;1632075;87;26252;-79
2022/02/24 01:33:13;;;;;;;42.35;14.85;;;;;;;2.39;74.66;101406.90;1620100;87;25919;-79
2022/02/24 01:35:40;;;;;;;44.30;15.43;;;;;;;2.39;74.65;101397.64;1635884;87;45523;-80
2022/02/24 01:38:07;;;;;;;33.28;13.58;;;;;;;2.36;74.64;101401.83;1619557;87;25900;-80
2022/02/24 01:40:34;;;;;;;39.27;13.58;;;;;;;2.34;74.73;101408.56;1633612;87;26503;-79
2022/02/24 01:43:01;;;;;;;43.40;14.63;;;;;;;2.35;74.78;101410.23;1650824;85;25950;-80
2022/02/24 01:45:29;;;;;;;43.48;15.75;;;;;;;2.37;74.91;101406.64;1659836;85;25817;-80
2022/02/24 01:47:58;;;;;;;36.65;13.53;;;;;;;2.37;74.95;101408.81;1656859;85;27660;-80
2022/02/24 01:50:25;;;;;;;36.33;13.45;;;;;;;2.34;74.95;101392.70;1656120;85;26611;-80
2022/02/24 01:52:52;;;;;;;39.58;15.05;;;;;;;2.31;75.07;101406.13;1656797;86;25907;-79
2022/02/24 01:55:20;;;;;;;41.55;15.20;;;;;;;2.28;75.09;101387.03;1653819;86;25813;-79
2022/02/24 01:57:48;;;;;;;35.73;13.95;;;;;;;2.24;75.23;101383.78;1653057;86;25898;-80
2022/02/24 02:00:16;;;;;;;37.45;13.62;;;;;;;2.18;75.29;101385.53;1660072;85;27572;-80
2022/02/24 02:02:42;;;;;;;49.03;16.10;;;;;;;2.17;75.45;101395.76;1654076;85;25899;-79
2022/02/24 02:05:09;;;;;;;37.20;16.02;;;;;;;2.15;75.46;101395.03;1652298;86;25830;-78
2022/02/24 02:07:35;;;;;;;45.12;15.18;;;;;;;2.14;75.54;101399.94;1655052;85;25459;-80
2022/02/24 02:10:01;;;;;;;38.40;14.35;;;;;;;2.11;75.50;101400.65;1653736;86;25891;-80
2022/02/24 02:12:28;;;;;;;36.95;15.38;;;;;;;2.08;75.48;101395.58;1636547;85;27467;-80
2022/02/24 02:14:54;;;;;;;46.23;14.60;;;;;;;2.03;75.33;101394.59;1655962;85;26029;-81
2022/02/24 02:17:21;;;;;;;36.85;15.32;;;;;;;2.00;75.40;101393.98;1656977;85;25869;-80
2022/02/24 02:19:49;;;;;;;35.92;17.15;;;;;;;1.97;75.42;101392.41;1657358;86;25443;-81
2022/02/24 02:22:15;;;;;;;38.92;15.55;;;;;;;1.97;75.37;101391.09;1661364;85;25880;-80
2022/02/24 02:24:58;;;;;;;40.95;16.23;;;;;;;1.94;75.49;101390.02;1659262;85;27571;-79
2022/02/24 02:27:24;;;;;;;43.80;16.80;;;;;;;1.95;75.55;101392.15;1656104;85;25897;-79
2022/02/24 02:29:51;;;;;;;36.63;15.20;;;;;;;1.92;75.49;101392.39;1657360;85;25536;-80
2022/02/24 02:32:17;;;;;;;36.83;15.85;;;;;;;1.91;75.48;101392.02;1661212;85;26378;-79
2022/02/24 02:34:43;;;;;;;38.83;16.42;;;;;;;1.88;75.57;101390.94;1654557;85;25910;-79
2022/02/24 02:37:09;;;;;;;36.53;15.93;;;;;;;1.85;75.63;101387.18;1654433;86;28381;-79
2022/02/24 02:39:36;;;;;;;48.15;17.55;;;;;;;1.81;75.72;101382.61;1654420;86;25742;-79
2022/02/24 02:42:02;;;;;;;37.63;15.72;;;;;;;1.81;75.88;101377.80;1656604;85;25886;-79
2022/02/24 02:44:29;;;;;;;38.50;16.77;;;;;;;1.81;75.96;101377.33;1662759;85;26075;-79
2022/02/24 02:46:55;;;;;;;43.63;15.80;;;;;;;1.80;76.08;101376.95;1651661;85;26513;-81
2022/02/24 02:49:21;;;;;;;48.17;16.82;;;;;;;1.77;76.24;101375.02;1656675;85;28319;-80
2022/02/24 02:51:47;;;;;;;39.27;16.65;;;;;;;1.75;76.39;101373.82;1658856;85;25882;-80
2022/02/24 02:54:13;;;;;;;40.98;15.72;;;;;;;1.75;76.58;101376.46;1652917;85;25715;-80
2022/02/24 02:56:40;;;;;;;39.18;14.55;;;;;;;1.73;76.73;101380.16;1656577;85;26379;-79
2022/02/24 02:59:06;;;;;;;36.35;16.45;;;;;;;1.71;76.75;101374.16;1654130;86;25931;-80
2022/02/24 03:01:32;;;;;;;38.73;15.32;;;;;;;1.67;76.84;101374.01;1649784;86;27486;-80
2022/02/24 03:03:59;;;;;;;39.48;15.25;;;;;;;1.65;77.01;101372.78;1653872;85;25839;-79
2022/02/24 03:06:25;;;;;;;41.92;15.78;;;;;;;1.66;77.10;101372.31;1653478;86;25842;-80
2022/02/24 03:08:51;;;;;;;40.08;16.30;;;;;;;1.62;77.03;101366.89;1661453;85;26206;-80
2022/02/24 03:11:17;;;;;;;47.62;16.87;;;;;;;1.61;77.19;101361.22;1660238;85;25798;-79
2022/02/24 03:13:43;;;;;;;45.10;17.00;;;;;;;1.60;77.27;101363.05;1653182;85;28297;-80
2022/02/24 03:16:10;;;;;;;37.53;14.33;;;;;;;1.60;77.28;101368.80;1659012;85;25882;-80
2022/02/24 03:18:36;;;;;;;37.93;16.15;;;;;;;1.61;77.30;101365.19;1655809;85;25766;-80
2022/02/24 03:21:02;;;;;;;44.73;17.48;;;;;;;1.57;77.30;101368.53;1655452;85;26207;-80
2022/02/24 03:23:28;;;;;;;39.88;15.15;;;;;;;1.55;77.35;101366.02;1653601;85;25904;-79
2022/02/24 03:25:54;;;;;;;45.20;17.25;;;;;;;1.54;77.36;101370.06;1657890;85;27464;-80
2022/02/24 03:28:21;;;;;;;37.98;16.15;;;;;;;1.54;77.42;101368.27;1658811;85;26553;-79
2022/02/24 03:30:47;;;;;;;33.28;15.50;;;;;;;1.53;77.41;101367.07;1649340;85;25833;-79
2022/02/24 03:33:13;;;;;;;45.70;16.82;;;;;;;1.52;77.39;101366.22;1649940;85;26231;-79
2022/02/24 03:35:43;;;;;;;44.40;16.50;;;;;;;1.54;77.40;101368.74;1645748;85;26529;-80
2022/02/24 03:38:10;;;;;;;40.43;14.50;;;;;;;1.53;77.36;101365.28;1660883;85;27552;-80
2022/02/24 03:40:36;;;;;;;37.42;14.73;;;;;;;1.52;77.43;101367.55;1649877;86;25880;-79
2022/02/24 03:43:03;;;;;;;34.73;14.47;;;;;;;1.50;77.39;101368.59;1652226;86;25815;-80
2022/02/24 03:45:29;;;;;;;38.33;15.00;;;;;;;1.49;77.55;101373.53;1655454;85;26175;-81
2022/02/24 03:47:55;;;;;;;43.95;14.43;;;;;;;1.45;77.55;101364.15;1656291;86;26161;-80
2022/02/24 03:50:23;;;;;;;41.10;14.43;;;;;;;1.45;77.53;101364.97;1657427;85;27494;-79
2022/02/24 03:52:49;;;;;;;32.40;14.33;;;;;;;1.45;77.54;101361.51;1650031;85;26504;-80
2022/02/24 03:55:15;;;;;;;35.48;14.50;;;;;;;1.45;77.60;101364.97;1663143;85;25934;-80
2022/02/24 03:57:43;;;;;;;35.98;14.45;;;;;;;1.45;77.52;101362.83;1656230;85;26284;-80
2022/02/24 04:00:11;;;;;;;38.25;16.77;;;;;;;1.44;77.39;101360.66;1651956;85;26063;-80
2022/02/24 04:02:43;;;;;;;39.42;15.03;;;;;;;1.43;77.31;101362.09;1655860;85;27503;-79
2022/02/24 04:05:11;;;;;;;42.20;15.68;;;;;;;1.40;77.21;101357.88;1662988;85;25969;-79
2022/02/24 04:07:37;;;;;;;39.18;16.50;;;;;;;1.39;77.22;101361.45;1659876;85;25957;-79
2022/02/24 04:10:05;;;;;;;39.65;15.45;;;;;;;1.35;77.08;101365.27;1648854;86;25843;-80
2022/02/24 04:12:34;;;;;;;33.13;15.08;;;;;;;1.28;77.03;101373.24;1648137;86;26612;-79
2022/02/24 04:15:00;;;;;;;37.13;14.78;;;;;;;1.23;77.33;101367.47;1655996;85;27467;-79
2022/02/24 04:17:26;;;;;;;43.68;16.07;;;;;;;1.20;77.55;101369.45;1651839;85;25935;-79
2022/02/24 04:19:52;;;;;;;41.25;17.12;;;;;;;1.18;77.77;101352.89;1648264;86;25808;-79
2022/02/24 04:22:19;;;;;;;42.08;16.23;;;;;;;1.19;77.96;101357.23;1648124;86;26468;-80
2022/02/24 04:24:45;;;;;;;46.00;15.48;;;;;;;1.22;78.11;101360.98;1648608;86;25273;-80
2022/02/24 04:27:11;;;;;;;37.60;15.83;;;;;;;1.21;78.12;101362.78;1648433;86;27719;-79
2022/02/24 04:29:38;;;;;;;36.73;16.25;;;;;;;1.17;78.19;101353.86;1655835;85;25893;-79
2022/02/24 04:32:05;;;;;;;36.35;16.45;;;;;;;1.14;78.25;101356.23;1655846;85;25369;-80
2022/02/24 04:34:31;;;;;;;39.53;15.75;;;;;;;1.13;78.26;101357.20;1655799;85;25797;-79
2022/02/24 04:36:57;;;;;;;42.05;16.35;;;;;;;1.13;78.24;101355.88;1655605;85;25907;-80
2022/02/24 04:39:25;;;;;;;41.18;15.93;;;;;;;1.13;78.05;101361.16;1651934;85;28317;-79
2022/02/24 04:41:52;;;;;;;35.33;15.58;;;;;;;1.10;77.82;101357.41;1665883;84;25855;-79
2022/02/24 04:44:18;;;;;;;40.85;16.42;;;;;;;1.06;77.82;101352.45;1654400;85;25783;-79
2022/02/24 04:46:44;;;;;;;47.10;15.70;;;;;;;1.06;78.03;101340.11;1660861;85;25890;-82
2022/02/24 04:49:10;;;;;;;42.75;17.57;;;;;;;1.08;78.16;101342.16;1652372;85;25844;-79
2022/02/24 04:51:37;;;;;;;36.00;14.80;;;;;;;1.08;78.01;101343.48;1655906;85;27044;-80
2022/02/24 04:54:03;;;;;;;43.25;15.70;;;;;;;1.07;78.16;101338.33;1663748;85;25886;-79
2022/02/24 04:56:30;;;;;;;35.80;16.37;;;;;;;1.06;78.25;101331.34;1653892;85;25950;-79
2022/02/24 04:58:56;;;;;;;45.33;16.20;;;;;;;1.07;78.40;101333.87;1648249;86;26563;-79
2022/02/24 05:01:22;;;;;;;44.80;17.50;;;;;;;1.06;78.29;101330.88;1648152;86;25862;-79
2022/02/24 05:03:48;;;;;;;33.20;16.55;;;;;;;1.03;78.22;101333.72;1659140;85;27428;-80
2022/02/24 05:06:15;;;;;;;34.40;15.38;;;;;;;1.02;78.29;101334.69;1655504;85;26003;-80
2022/02/24 05:08:41;;;;;;;52.25;17.45;;;;;;;1.02;78.31;101337.80;1652357;85;25770;-79
2022/02/24 05:11:07;;;;;;;46.53;18.70;;;;;;;1.01;78.33;101340.05;1652211;85;25463;-80
2022/02/24 05:13:33;;;;;;;46.90;17.42;;;;;;;1.01;78.46;101334.77;1655820;85;25921;-80
2022/02/24 05:16:00;;;;;;;42.90;18.48;;;;;;;1.01;78.60;101342.69;1657011;85;27470;-80
2022/02/24 05:18:26;;;;;;;40.28;16.90;;;;;;;1.01;78.86;101339.58;1653648;85;25936;-79
2022/02/24 05:20:52;;;;;;;40.30;16.10;;;;;;;1.02;79.00;101331.20;1652101;85;26023;-80
2022/02/24 05:23:18;;;;;;;42.95;16.62;;;;;;;1.01;79.04;101332.13;1667391;85;25788;-79
2022/02/24 05:25:44;;;;;;;46.40;16.93;;;;;;;1.02;79.11;101337.80;1651045;85;26716;-80
2022/02/24 05:28:12;;;;;;;45.33;15.18;;;;;;;1.02;79.17;101329.88;1649318;85;27453;-79
2022/02/24 05:30:39;;;;;;;44.23;17.02;;;;;;;1.01;79.19;101330.34;1663025;85;26469;-80
2022/02/24 05:33:09;;;;;;;41.60;17.82;;;;;;;1.02;79.24;101326.77;1657820;85;25902;-79
2022/02/24 05:35:34;;;;;;;37.38;15.43;;;;;;;1.02;79.20;101328.09;1650173;85;26353;-80
2022/02/24 05:38:00;;;;;;;46.85;16.45;;;;;;;1.02;79.20;101327.23;1657999;85;25824;-79
2022/02/24 05:40:27;;;;;;;36.93;17.50;;;;;;;1.01;79.14;101329.50;1656954;85;28254;-80
2022/02/24 05:42:53;;;;;;;42.03;16.12;;;;;;;1.01;79.31;101333.45;1657521;85;26024;-81
2022/02/24 05:45:19;;;;;;;40.45;16.85;;;;;;;1.01;79.31;101333.45;1657840;85;26071;-81
2022/02/24 05:47:45;;;;;;;44.27;16.23;;;;;;;1.02;79.44;101331.20;1693638;83;25882;-81
2022/02/24 05:50:12;;;;;;;45.28;18.62;;;;;;;1.02;79.51;101332.52;1703051;82;25793;-80
2022/02/24 05:52:38;;;;;;;48.17;17.02;;;;;;;1.01;79.68;101335.63;1699995;82;28781;-80
2022/02/24 05:55:05;;;;;;;44.67;17.37;;;;;;;1.02;79.86;101333.37;1703748;82;25360;-79
2022/02/24 05:57:31;;;;;;;49.77;20.40;;;;;;;0.97;79.72;101331.52;1675698;84;26046;-80
2022/02/24 05:59:57;;;;;;;39.95;16.60;;;;;;;0.98;79.94;101343.77;1668600;84;25919;-79
2022/02/24 06:02:24;;;;;;;46.30;18.42;;;;;;;0.95;80.02;101340.48;1650092;85;26090;-82
2022/02/24 06:04:50;;;;;;;48.98;19.62;;;;;;;0.94;80.12;101344.91;1662691;85;27492;-80
2022/02/24 06:07:16;;;;;;;50.73;18.20;;;;;;;0.91;80.27;101346.45;1655504;85;25324;-80
2022/02/24 06:09:42;;;;;;;47.58;18.02;;;;;;;0.92;80.48;101348.63;1655794;85;25852;-81
2022/02/24 06:12:10;;;;;;;48.23;19.60;;;;;;;0.90;80.61;101351.85;1655436;85;25873;-81
2022/02/24 06:14:37;;;;;;;47.67;20.48;;;;;;;0.89;80.90;101354.95;1654417;85;26501;-79
2022/02/24 06:17:03;;;;;;;51.53;20.92;;;;;;;0.91;80.95;101355.69;1656493;85;27497;-79
2022/02/24 06:19:30;;;;;;;55.58;20.88;;;;;;;0.94;81.15;101353.32;1666353;85;26017;-79
2022/02/24 06:21:57;;;;;;;57.58;21.70;;;;;;;0.95;81.29;101352.35;1661434;85;25863;-80
2022/02/24 06:24:23;;;;;;;43.52;21.15;;;;;;;0.98;81.34;101356.11;1659645;85;25796;-79
2022/02/24 06:26:49;;;;;;;49.50;19.82;;;;;;;0.98;81.37;101353.47;1655276;85;25993;-82
2022/02/24 06:29:16;;;;;;;52.90;21.45;;;;;;;1.00;81.58;101351.56;1657653;85;27475;-79
2022/02/24 06:31:42;;;;;;;48.78;19.60;;;;;;;1.00;81.60;101347.14;1653021;85;26556;-80
2022/02/24 06:34:09;;;;;;;51.53;21.60;;;;;;;1.02;81.78;101348.34;1656094;85;26366;-80
2022/02/24 06:36:35;;;;;;;46.40;20.50;;;;;;;1.04;81.91;101342.48;1650283;85;26085;-79
2022/02/24 06:39:03;;;;;;;45.03;20.25;;;;;;;1.06;82.02;101341.43;1657316;85;25845;-80
2022/02/24 06:41:29;;;;;;;46.92;20.25;;;;;;;1.10;82.19;101348.17;1655572;85;27615;-79
2022/02/24 06:43:56;;;;;;;46.63;19.98;;;;;;;1.12;82.18;101342.31;1647856;86;25246;-81
2022/02/24 06:46:23;;;;;;;50.38;20.60;;;;;;;1.16;82.34;101335.86;1640860;86;25839;-79
2022/02/24 06:48:49;;;;;;;51.90;19.57;;;;;;;1.15;82.48;101338.15;1640593;86;25844;-80
2022/02/24 06:51:15;;;;;;;48.28;20.80;;;;;;;1.17;82.60;101340.67;1647399;85;25813;-80
2022/02/24 06:53:41;;;;;;;47.90;18.90;;;;;;;1.18;82.81;101337.91;1649051;85;27488;-79
2022/02/24 06:56:08;;;;;;;52.62;20.45;;;;;;;1.20;82.88;101341.75;1650675;85;26156;-80
2022/02/24 06:58:34;;;;;;;47.30;21.62;;;;;;;1.22;82.96;101338.56;1643844;85;26754;-79
2022/02/24 07:01:02;;;;;;;47.43;20.50;;;;;;;1.24;83.15;101333.52;1648446;85;25873;-79
2022/02/24 07:03:29;;;;;;;49.38;20.25;;;;;;;1.28;83.40;101332.34;1652907;85;25532;-79
2022/02/24 07:05:57;;;;;;;56.02;20.92;;;;;;;1.32;83.40;101328.55;1651008;85;27482;-79
2022/02/24 07:08:23;;;;;;;58.52;22.17;;;;;;;1.36;83.59;101335.77;1650477;85;25864;-79
2022/02/24 07:10:49;;;;;;;46.55;19.32;;;;;;;1.38;83.82;101324.62;1645477;85;25968;-80
2022/02/24 07:13:15;;;;;;;46.18;20.45;;;;;;;1.42;83.95;101323.44;1655903;85;25854;-80
2022/02/24 07:15:42;;;;;;;51.95;18.73;;;;;;;1.46;84.05;101322.27;1645613;85;25811;-80
2022/02/24 07:18:08;;;;;;;44.18;18.67;;;;;;;1.50;84.21;101323.25;1624244;86;28248;-80
2022/02/24 07:20:34;;;;;;;55.95;19.32;;;;;;;1.54;84.13;101321.22;1620963;87;25922;-81
2022/02/24 07:23:00;;;;;;;47.43;19.57;;;;;;;1.61;84.19;101319.83;1649079;85;25857;-80
2022/02/24 07:25:26;;;;;;;44.85;19.00;;;;;;;1.66;84.22;101315.06;1647533;85;25787;-79
2022/02/24 07:27:53;;;;;;;53.65;20.72;;;;;;;1.71;84.47;101314.73;1628847;86;25948;-78
2022/02/24 07:30:19;;;;;;;46.75;20.02;;;;;;;1.77;84.59;101314.27;1646166;85;27492;-81
2022/02/24 07:32:46;;;;;;;44.50;19.27;;;;;;;1.82;84.76;101302.91;1646574;85;25926;-79
2022/02/24 07:35:12;;;;;;;41.75;19.17;;;;;;;1.88;84.64;101305.08;1641422;85;26240;-78
2022/02/24 07:37:39;;;;;;;50.67;18.73;;;;;;;1.96;84.77;101301.38;1645420;85;26243;-77
2022/02/24 07:40:07;;;;;;;46.13;18.20;;;;;;;2.02;84.78;101299.13;1644157;85;25831;-80
2022/02/24 07:42:34;;;;;;;48.10;19.27;;;;;;;2.11;84.91;101305.52;1647303;85;27498;-80
2022/02/24 07:45:03;;;;;;;45.63;18.55;;;;;;;2.19;84.93;101299.17;1650048;85;26008;-80
2022/02/24 07:47:29;;;;;;;41.53;17.32;;;;;;;2.27;84.87;101293.66;1655753;85;26299;-82
2022/02/24 07:49:58;;;;;;;49.80;21.23;;;;;;;2.33;84.75;101294.51;1651103;85;25902;-79
2022/02/24 07:52:25;;;;;;;47.98;17.17;;;;;;;2.44;84.69;101290.22;1657722;84;25804;-79
2022/02/24 07:54:51;;;;;;;44.23;19.05;;;;;;;2.53;84.77;101284.20;1656501;84;27474;-79
2022/02/24 07:57:17;;;;;;;43.02;18.12;;;;;;;2.62;84.82;101287.47;1657903;85;26535;-77
2022/02/24 07:59:44;;;;;;;46.77;18.00;;;;;;;2.72;84.74;101289.74;1668449;84;25882;-78
2022/02/24 08:02:10;;;;;;;39.38;16.97;;;;;;;2.79;84.38;101286.98;1662793;84;26236;-79
2022/02/24 08:04:36;;;;;;;39.15;15.80;;;;;;;2.87;84.25;101280.13;1663127;85;25809;-79
2022/02/24 08:07:03;;;;;;;40.10;15.98;;;;;;;2.97;84.10;101286.88;1661862;85;27518;-81
2022/02/24 08:09:29;;;;;;;40.28;15.83;;;;;;;3.05;84.22;101272.55;1645472;85;25901;-79
2022/02/24 08:14:40;;;;;;;39.10;15.95;;;;;;;3.25;83.79;101266.98;1646827;85;25907;-79
2022/02/24 08:17:06;;;;;;;38.67;16.60;;;;;;;3.32;83.74;101263.70;1642542;85;25764;-77
2022/02/24 08:19:34;;;;;;;33.28;14.83;;;;;;;3.42;83.79;101268.60;1645000;85;27459;-78
2022/02/24 08:22:02;;;;;;;39.08;14.85;;;;;;;3.54;83.91;101264.13;1645793;85;26112;-80
2022/02/24 08:24:33;;;;;;;33.42;14.07;;;;;;;3.65;83.66;101254.34;1644922;85;25841;-79
2022/02/24 08:26:59;;;;;;;;;;;;;;;3.74;83.23;101251.42;1646441;85;26030;-78
2022/02/24 08:29:25;;;;;;;37.85;12.78;;;;;;;3.85;83.13;101251.34;1648362;85;26021;-81
2022/02/24 08:31:51;;;;;;;31.80;12.10;;;;;;;3.93;82.68;101250.72;1648541;85;27562;-79
2022/02/24 08:34:18;;;;;;;36.28;13.45;;;;;;;4.02;82.58;101242.81;1645189;85;25967;-78
2022/02/24 08:36:44;;;;;;;27.50;10.75;;;;;;;4.11;82.18;101239.40;1644674;85;26493;-79
2022/02/24 08:39:10;;;;;;;27.35;10.30;;;;;;;4.19;81.90;101238.26;1644807;85;26292;-81
2022/02/24 08:41:39;;;;;;;27.62;10.28;;;;;;;4.26;81.65;101238.09;1649429;85;25870;-80
2022/02/24 08:44:05;;;;;;;27.40;9.68;;;;;;;4.37;81.59;101241.16;1652425;85;27569;-80
2022/02/24 08:46:31;;;;;;;30.08;10.58;;;;;;;4.45;81.29;101242.18;1653121;86;26037;-81
2022/02/24 08:48:57;;;;;;;27.27;10.80;;;;;;;4.54;81.46;101240.06;1653648;85;26501;-80
2022/02/24 08:51:24;;;;;;;29.45;9.60;;;;;;;4.65;81.07;101232.50;1668958;85;25947;-80
2022/02/24 08:53:50;;;;;;;28.32;11.70;;;;;;;4.73;80.53;101228.69;1661186;85;25362;-81
2022/02/24 08:56:16;;;;;;;28.15;10.08;;;;;;;4.81;80.48;101227.55;1658475;86;28038;-80
2022/02/24 08:58:42;;;;;;;29.32;9.50;;;;;;;4.90;80.40;101221.92;1656517;86;25906;-82
2022/02/24 09:01:09;;;;;;;25.20;8.90;;;;;;;5.00;80.04;101216.99;1658017;85;25869;-78
2022/02/24 09:03:35;;;;;;;27.67;8.48;;;;;;;5.09;79.51;101210.84;1659163;85;26258;-80
2022/02/24 09:06:01;;;;;;;30.08;8.98;;;;;;;5.18;79.64;101209.17;1658956;85;25653;-82
2022/02/24 09:08:28;;;;;;;20.95;8.68;;;;;;;5.25;79.24;101204.52;1665243;85;27549;-81
2022/02/24 09:10:54;;;;;;;29.72;9.78;;;;;;;5.34;79.27;101194.41;1659479;85;25955;-83
2022/02/24 09:13:20;;;;;;;24.60;8.90;;;;;;;5.44;78.95;101193.06;1655476;85;25830;-83
2022/02/24 09:15:46;;;;;;;18.27;8.15;;;;;;;5.52;78.64;101186.55;1658703;85;25848;-82
2022/02/24 09:18:13;;;;;;;25.48;9.33;;;;;;;5.61;77.94;101178.23;1660837;85;25764;-84
2022/02/24 09:20:39;;;;;;;26.85;7.87;;;;;;;5.71;78.17;101175.92;1655885;85;27472;-84
2022/02/24 09:23:07;;;;;;;25.85;7.95;;;;;;;5.78;77.54;101175.70;1670473;85;25797;-85
2022/02/24 09:25:33;;;;;;;20.97;7.10;;;;;;;5.87;78.24;101165.59;1657607;86;25904;-85
2022/02/24 09:27:59;;;;;;;19.90;6.55;;;;;;;5.98;77.67;101165.43;1662548;85;25997;-84
2022/02/24 09:30:26;;;;;;;17.12;6.58;;;;;;;6.10;77.46;101156.30;1653709;85;25349;-85
2022/02/24 09:32:55;;;;;;;21.85;6.75;;;;;;;6.18;77.25;101152.89;1656233;85;27483;-81
2022/02/24 09:35:21;;;;;;;22.00;5.95;;;;;;;6.24;76.35;101149.16;1659608;85;25900;-78
2022/02/24 09:40:36;;;;;;;18.12;5.08;;;;;;;6.40;75.61;101144.56;1661349;84;26136;-79
2022/02/24 09:43:04;;;;;;;19.20;5.58;;;;;;;6.45;74.41;101134.81;1654053;84;25817;-78
2022/02/24 09:45:30;;;;;;;16.85;4.67;;;;;;;6.52;74.54;101127.92;1652294;84;27542;-79
2022/02/24 09:48:04;;;;;;;17.67;6.50;;;;;;;6.56;74.62;101120.83;1654855;84;25882;-78
2022/02/24 09:50:33;;;;;;;16.25;4.75;;;;;;;6.59;74.50;101120.52;1638579;86;25824;-80
2022/02/24 09:53:00;;;;;;;16.05;5.33;;;;;;;6.63;74.74;101128.55;1640386;86;25812;-81
2022/02/24 09:55:26;;;;;;;15.80;5.25;;;;;;;6.70;74.57;101116.33;1642675;86;26152;-79
2022/02/24 09:57:52;;;;;;;22.05;5.72;;;;;;;6.79;73.90;101106.59;1640501;86;27469;-79
2022/02/24 10:00:20;;;;;;;14.43;5.58;;;;;;;6.85;73.56;101102.00;1634504;86;26586;-79
2022/02/24 10:02:48;;;;;;;17.77;5.65;;;;;;;6.90;73.57;101093.08;1631387;86;25303;-79
2022/02/24 10:05:15;;;;;;;19.45;5.78;;;;;;;6.95;73.38;101093.44;1627596;86;26068;-79
2022/02/24 10:07:43;;;;;;;22.30;7.00;;;;;;;6.98;72.73;101086.01;1618213;87;26108;-78
2022/02/24 10:10:31;;;;;;;16.20;6.03;;;;;;;7.10;73.40;101093.77;1618051;87;27457;-80
2022/02/24 10:13:09;;;;;;;19.90;6.05;;;;;;;7.17;73.00;101085.01;1622663;86;26501;-79
2022/02/24 10:15:42;;;;;;;20.02;6.60;;;;;;;7.24;72.14;101084.75;1612035;88;25877;-79
2022/02/24 10:18:16;;;;;;;20.17;6.40;;;;;;;7.31;71.58;101079.64;1621211;86;25831;-78
2022/02/24 10:20:52;;;;;;;21.20;6.03;;;;;;;7.36;71.34;101071.51;1616695;87;26703;-80
2022/02/24 10:23:20;;;;;;;21.73;5.28;;;;;;;7.43;71.24;101062.41;1627252;86;27467;-80
2022/02/24 10:25:51;;;;;;;14.60;4.92;;;;;;;7.47;71.07;101052.61;1625038;86;26526;-79
2022/02/24 10:28:36;;;;;;;15.10;4.72;;;;;;;7.51;71.19;101043.31;1622754;86;26030;-78
2022/02/24 10:31:25;;;;;;;16.70;6.10;;;;;;;7.58;71.58;101040.37;1622593;86;26235;-79
2022/02/24 10:34:06;;;;;;;20.85;7.00;;;;;;;7.66;70.89;101035.56;1612725;87;25868;-80
2022/02/24 10:36:36;;;;;;;14.97;5.53;;;;;;;7.70;71.08;101032.43;1610706;88;27549;-79
2022/02/24 10:39:13;;;;;;;15.43;5.27;;;;;;;7.77;70.42;101029.48;1625451;87;26183;-79
2022/02/24 10:41:46;;;;;;;21.15;5.87;;;;;;;7.82;69.93;101023.68;1627805;86;26061;-79
2022/02/24 10:44:25;;;;;;;16.40;5.95;;;;;;;7.84;70.01;101019.02;1637070;86;25843;-79
2022/02/24 10:47:05;;;;;;;22.27;5.08;;;;;;;7.87;69.85;101011.20;1624425;86;26367;-78
2022/02/24 10:49:39;;;;;;;24.40;5.42;;;;;;;7.87;69.31;101013.34;1612714;87;28342;-80
2022/02/24 10:52:15;;;;;;;13.10;5.25;;;;;;;7.92;67.59;101003.54;1624153;87;26631;-78
2022/02/24 10:54:57;;;;;;;14.93;4.50;;;;;;;7.98;69.04;101000.23;1629911;86;25941;-79
2022/02/24 10:57:26;;;;;;;18.27;4.85;;;;;;;8.03;67.95;100994.77;1614091;87;26590;-78
2022/02/24 10:59:55;;;;;;;16.20;5.08;;;;;;;8.06;68.74;100994.95;1599154;88;26602;-79
2022/02/24 11:02:24;;;;;;;12.10;5.12;;;;;;;8.07;68.30;100984.11;1612347;87;27552;-81
2022/02/24 11:04:52;;;;;;;14.50;5.08;;;;;;;8.11;68.72;100981.94;1597582;87;25993;-79
2022/02/24 11:07:21;;;;;;;16.07;5.17;;;;;;;8.13;68.31;100976.78;1615011;87;25904;-78
2022/02/24 11:09:48;;;;;;;15.20;4.97;;;;;;;8.15;67.40;100966.78;1618412;87;25971;-80
2022/02/24 11:12:17;;;;;;;13.05;4.92;;;;;;;8.18;67.92;100966.97;1626490;86;25751;-78
2022/02/24 11:14:46;;;;;;;11.28;4.40;;;;;;;8.20;67.15;100957.80;1625978;87;27551;-78
2022/02/24 11:17:14;;;;;;;13.80;4.42;;;;;;;8.24;68.01;100951.63;1605946;88;25811;-79
2022/02/24 11:19:45;;;;;;;12.95;4.58;;;;;;;8.28;67.10;100950.34;1593287;88;25906;-79
2022/02/24 11:22:11;;;;;;;14.95;5.33;;;;;;;8.30;67.13;100933.17;1618481;87;25865;-80
2022/02/24 11:24:38;;;;;;;19.92;6.08;;;;;;;8.35;66.64;100930.85;1612338;87;25910;-78